Route Details

Aircraft Information
Group: European Fleet
Types: A30F, B738
Route Data
Distance: 317nm
Duration: 1h 00m
Origin METAR: LOWL 260250Z AUTO 23003KT 200V270 9999 FEW004 BKN006 13/12 Q1019
Dest. METAR: EDDK 260250Z AUTO 17003KT CAVOK 10/10 Q1017 NOSIG
Freight Data
(for May 26, 2024)
Load Factor:
30%
Manifested Cargo: 22,612lbs
Financial History
Total Freight: 370,973lbs
Average Load: 0lbs/flt
Fuel Used: 66,824lbs
Avg. Fuel Used: 0lbs/flt
Fuel Expense: $32,510
Avg. Fuel Expense: $0
Avg. Fuel Cost: $0/lbs
Total Gross Income: $853,238
Pilot Pay: $1,663
Total Expenses: $181,933
Total Revenue: $635,497
Average Revenue: $0

Capitol Logistics 533




LOWL
Linz Hörsching Airport
Linz, AT
EDDK
Cologne Bonn Airport
Cologne, DE